sensor_id;sensor_type;location;lat;lon;timestamp;P1;durP1;ratioP1;P2;durP2;ratioP2
1358;SDS011;673;48.098;14.422;2022-08-21T00:01:28;2.07;;;1.10;;
1358;SDS011;673;48.098;14.422;2022-08-21T00:03:57;0.97;;;0.77;;
1358;SDS011;673;48.098;14.422;2022-08-21T00:06:29;1.37;;;0.80;;
1358;SDS011;673;48.098;14.422;2022-08-21T00:08:57;1.27;;;0.70;;
1358;SDS011;673;48.098;14.422;2022-08-21T00:11:25;1.10;;;0.80;;
1358;SDS011;673;48.098;14.422;2022-08-21T00:13:52;1.83;;;1.20;;
1358;SDS011;673;48.098;14.422;2022-08-21T00:16:19;1.30;;;1.03;;
1358;SDS011;673;48.098;14.422;2022-08-21T00:18:46;1.60;;;0.90;;
1358;SDS011;673;48.098;14.422;2022-08-21T00:21:15;1.03;;;0.70;;
1358;SDS011;673;48.098;14.422;2022-08-21T00:23:42;1.50;;;1.10;;
1358;SDS011;673;48.098;14.422;2022-08-21T00:26:10;1.23;;;1.00;;
1358;SDS011;673;48.098;14.422;2022-08-21T00:28:37;1.77;;;1.20;;
1358;SDS011;673;48.098;14.422;2022-08-21T00:31:04;0.97;;;0.90;;
1358;SDS011;673;48.098;14.422;2022-08-21T00:33:31;1.20;;;1.03;;
1358;SDS011;673;48.098;14.422;2022-08-21T00:35:58;1.80;;;1.43;;
1358;SDS011;673;48.098;14.422;2022-08-21T00:38:27;3.80;;;1.10;;
1358;SDS011;673;48.098;14.422;2022-08-21T00:40:55;1.07;;;0.97;;
1358;SDS011;673;48.098;14.422;2022-08-21T00:43:24;1.83;;;0.93;;
1358;SDS011;673;48.098;14.422;2022-08-21T00:45:54;2.00;;;1.23;;
1358;SDS011;673;48.098;14.422;2022-08-21T00:48:23;0.87;;;0.83;;
1358;SDS011;673;48.098;14.422;2022-08-21T00:50:52;1.87;;;1.60;;
1358;SDS011;673;48.098;14.422;2022-08-21T00:53:23;2.00;;;1.90;;
1358;SDS011;673;48.098;14.422;2022-08-21T00:55:52;2.07;;;1.30;;
1358;SDS011;673;48.098;14.422;2022-08-21T00:58:21;1.30;;;1.00;;
1358;SDS011;673;48.098;14.422;2022-08-21T01:00:49;1.03;;;0.93;;
1358;SDS011;673;48.098;14.422;2022-08-21T01:03:17;1.50;;;1.40;;
1358;SDS011;673;48.098;14.422;2022-08-21T01:05:45;1.77;;;1.50;;
1358;SDS011;673;48.098;14.422;2022-08-21T01:08:13;2.23;;;2.00;;
1358;SDS011;673;48.098;14.422;2022-08-21T01:10:43;2.97;;;2.00;;
1358;SDS011;673;48.098;14.422;2022-08-21T01:13:12;2.93;;;2.40;;
1358;SDS011;673;48.098;14.422;2022-08-21T01:15:43;4.87;;;3.40;;
1358;SDS011;673;48.098;14.422;2022-08-21T01:18:12;2.20;;;1.80;;
1358;SDS011;673;48.098;14.422;2022-08-21T01:20:41;2.90;;;2.60;;
1358;SDS011;673;48.098;14.422;2022-08-21T01:23:12;2.37;;;1.60;;
1358;SDS011;673;48.098;14.422;2022-08-21T01:25:39;2.10;;;1.97;;
1358;SDS011;673;48.098;14.422;2022-08-21T01:28:07;2.77;;;2.57;;
1358;SDS011;673;48.098;14.422;2022-08-21T01:30:38;3.27;;;2.37;;
1358;SDS011;673;48.098;14.422;2022-08-21T01:33:06;4.40;;;1.20;;
1358;SDS011;673;48.098;14.422;2022-08-21T01:35:33;3.80;;;2.80;;
1358;SDS011;673;48.098;14.422;2022-08-21T01:38:00;2.07;;;1.60;;
1358;SDS011;673;48.098;14.422;2022-08-21T01:40:29;1.97;;;1.87;;
1358;SDS011;673;48.098;14.422;2022-08-21T01:42:56;2.73;;;2.53;;
1358;SDS011;673;48.098;14.422;2022-08-21T01:45:23;3.77;;;2.00;;
1358;SDS011;673;48.098;14.422;2022-08-21T01:47:50;2.53;;;2.33;;
1358;SDS011;673;48.098;14.422;2022-08-21T01:50:18;2.00;;;1.60;;
1358;SDS011;673;48.098;14.422;2022-08-21T01:52:46;3.60;;;2.70;;
1358;SDS011;673;48.098;14.422;2022-08-21T01:55:14;1.90;;;1.73;;
1358;SDS011;673;48.098;14.422;2022-08-21T01:57:44;2.17;;;1.97;;
1358;SDS011;673;48.098;14.422;2022-08-21T02:00:12;4.33;;;3.10;;
1358;SDS011;673;48.098;14.422;2022-08-21T02:02:41;3.67;;;1.97;;
1358;SDS011;673;48.098;14.422;2022-08-21T02:05:09;2.97;;;1.97;;
1358;SDS011;673;48.098;14.422;2022-08-21T02:07:38;3.70;;;2.77;;
1358;SDS011;673;48.098;14.422;2022-08-21T02:10:07;2.17;;;1.50;;
1358;SDS011;673;48.098;14.422;2022-08-21T02:12:35;3.00;;;2.37;;
1358;SDS011;673;48.098;14.422;2022-08-21T02:15:04;2.73;;;2.23;;
1358;SDS011;673;48.098;14.422;2022-08-21T02:17:39;2.83;;;2.60;;
1358;SDS011;673;48.098;14.422;2022-08-21T02:20:09;4.03;;;3.73;;
1358;SDS011;673;48.098;14.422;2022-08-21T02:22:37;3.43;;;2.90;;
1358;SDS011;673;48.098;14.422;2022-08-21T02:25:05;3.90;;;2.30;;
1358;SDS011;673;48.098;14.422;2022-08-21T02:27:36;1.97;;;1.83;;
1358;SDS011;673;48.098;14.422;2022-08-21T02:30:06;2.43;;;1.73;;
1358;SDS011;673;48.098;14.422;2022-08-21T02:32:34;4.13;;;2.23;;
1358;SDS011;673;48.098;14.422;2022-08-21T02:35:01;4.63;;;3.40;;
1358;SDS011;673;48.098;14.422;2022-08-21T02:37:29;3.57;;;2.57;;
1358;SDS011;673;48.098;14.422;2022-08-21T02:39:56;2.50;;;2.20;;
1358;SDS011;673;48.098;14.422;2022-08-21T02:42:23;3.17;;;2.20;;
1358;SDS011;673;48.098;14.422;2022-08-21T02:44:50;5.27;;;3.07;;
1358;SDS011;673;48.098;14.422;2022-08-21T02:47:18;4.27;;;2.53;;
1358;SDS011;673;48.098;14.422;2022-08-21T02:49:45;2.47;;;1.93;;
1358;SDS011;673;48.098;14.422;2022-08-21T02:52:12;3.27;;;2.87;;
1358;SDS011;673;48.098;14.422;2022-08-21T02:54:39;4.63;;;3.03;;
1358;SDS011;673;48.098;14.422;2022-08-21T02:57:07;1.83;;;1.70;;
1358;SDS011;673;48.098;14.422;2022-08-21T02:59:34;2.57;;;2.47;;
1358;SDS011;673;48.098;14.422;2022-08-21T03:02:01;5.90;;;2.80;;
1358;SDS011;673;48.098;14.422;2022-08-21T03:04:30;2.00;;;1.80;;
1358;SDS011;673;48.098;14.422;2022-08-21T03:06:57;4.43;;;3.07;;
1358;SDS011;673;48.098;14.422;2022-08-21T03:09:24;2.40;;;1.40;;
1358;SDS011;673;48.098;14.422;2022-08-21T03:11:51;2.70;;;2.20;;
1358;SDS011;673;48.098;14.422;2022-08-21T03:14:19;5.40;;;1.80;;
1358;SDS011;673;48.098;14.422;2022-08-21T03:16:46;2.80;;;2.37;;
1358;SDS011;673;48.098;14.422;2022-08-21T03:19:13;2.23;;;2.00;;
1358;SDS011;673;48.098;14.422;2022-08-21T03:21:41;3.33;;;1.73;;
1358;SDS011;673;48.098;14.422;2022-08-21T03:24:08;1.83;;;1.73;;
1358;SDS011;673;48.098;14.422;2022-08-21T03:26:35;2.60;;;2.40;;
1358;SDS011;673;48.098;14.422;2022-08-21T03:29:02;2.97;;;1.67;;
1358;SDS011;673;48.098;14.422;2022-08-21T03:31:30;5.30;;;1.97;;
1358;SDS011;673;48.098;14.422;2022-08-21T03:33:57;3.40;;;2.20;;
1358;SDS011;673;48.098;14.422;2022-08-21T03:36:24;2.93;;;2.73;;
1358;SDS011;673;48.098;14.422;2022-08-21T03:38:53;3.47;;;2.63;;
1358;SDS011;673;48.098;14.422;2022-08-21T03:41:20;4.50;;;2.03;;
1358;SDS011;673;48.098;14.422;2022-08-21T03:43:47;1.77;;;1.67;;
1358;SDS011;673;48.098;14.422;2022-08-21T03:46:14;1.80;;;1.70;;
1358;SDS011;673;48.098;14.422;2022-08-21T03:48:41;4.47;;;2.17;;
1358;SDS011;673;48.098;14.422;2022-08-21T03:51:08;2.73;;;1.97;;
1358;SDS011;673;48.098;14.422;2022-08-21T03:53:35;1.63;;;1.50;;
1358;SDS011;673;48.098;14.422;2022-08-21T03:56:04;1.63;;;1.23;;
1358;SDS011;673;48.098;14.422;2022-08-21T03:58:31;1.93;;;1.40;;
1358;SDS011;673;48.098;14.422;2022-08-21T04:00:59;3.87;;;2.10;;
1358;SDS011;673;48.098;14.422;2022-08-21T04:03:28;5.23;;;1.80;;
1358;SDS011;673;48.098;14.422;2022-08-21T04:05:55;2.20;;;1.77;;
1358;SDS011;673;48.098;14.422;2022-08-21T04:08:22;2.80;;;1.87;;
1358;SDS011;673;48.098;14.422;2022-08-21T04:10:51;3.10;;;2.70;;
1358;SDS011;673;48.098;14.422;2022-08-21T04:13:22;2.70;;;1.77;;
1358;SDS011;673;48.098;14.422;2022-08-21T04:15:51;3.10;;;1.70;;
1358;SDS011;673;48.098;14.422;2022-08-21T04:18:18;2.27;;;1.83;;
1358;SDS011;673;48.098;14.422;2022-08-21T04:20:46;11.03;;;2.57;;
1358;SDS011;673;48.098;14.422;2022-08-21T04:23:15;1.80;;;1.70;;
1358;SDS011;673;48.098;14.422;2022-08-21T04:25:42;1.97;;;1.77;;
1358;SDS011;673;48.098;14.422;2022-08-21T04:28:09;4.03;;;2.03;;
1358;SDS011;673;48.098;14.422;2022-08-21T04:30:38;1.87;;;1.40;;
1358;SDS011;673;48.098;14.422;2022-08-21T04:33:05;2.97;;;1.97;;
1358;SDS011;673;48.098;14.422;2022-08-21T04:35:32;4.93;;;1.97;;
1358;SDS011;673;48.098;14.422;2022-08-21T04:37:59;2.50;;;1.93;;
1358;SDS011;673;48.098;14.422;2022-08-21T04:40:26;3.83;;;3.20;;
1358;SDS011;673;48.098;14.422;2022-08-21T04:42:55;1.87;;;1.77;;
1358;SDS011;673;48.098;14.422;2022-08-21T04:45:26;3.10;;;2.10;;
1358;SDS011;673;48.098;14.422;2022-08-21T04:47:57;2.23;;;2.03;;
1358;SDS011;673;48.098;14.422;2022-08-21T04:50:25;1.93;;;1.37;;
1358;SDS011;673;48.098;14.422;2022-08-21T04:52:56;1.40;;;1.30;;
1358;SDS011;673;48.098;14.422;2022-08-21T04:55:23;1.60;;;1.47;;
1358;SDS011;673;48.098;14.422;2022-08-21T04:57:52;3.63;;;2.43;;
1358;SDS011;673;48.098;14.422;2022-08-21T05:00:20;1.73;;;1.63;;
1358;SDS011;673;48.098;14.422;2022-08-21T05:02:49;1.67;;;1.57;;
1358;SDS011;673;48.098;14.422;2022-08-21T05:05:22;1.77;;;1.20;;
1358;SDS011;673;48.098;14.422;2022-08-21T05:07:50;1.47;;;1.37;;
1358;SDS011;673;48.098;14.422;2022-08-21T05:10:19;2.17;;;1.30;;
1358;SDS011;673;48.098;14.422;2022-08-21T05:12:46;2.30;;;1.30;;
1358;SDS011;673;48.098;14.422;2022-08-21T05:15:14;1.80;;;1.47;;
1358;SDS011;673;48.098;14.422;2022-08-21T05:17:42;2.27;;;1.63;;
1358;SDS011;673;48.098;14.422;2022-08-21T05:20:10;1.80;;;1.43;;
1358;SDS011;673;48.098;14.422;2022-08-21T05:22:40;1.30;;;1.20;;
1358;SDS011;673;48.098;14.422;2022-08-21T05:25:08;2.30;;;1.33;;
1358;SDS011;673;48.098;14.422;2022-08-21T05:27:36;3.10;;;1.90;;
1358;SDS011;673;48.098;14.422;2022-08-21T05:30:04;2.00;;;1.33;;
1358;SDS011;673;48.098;14.422;2022-08-21T05:32:33;1.70;;;1.50;;
1358;SDS011;673;48.098;14.422;2022-08-21T05:35:01;2.50;;;1.57;;
1358;SDS011;673;48.098;14.422;2022-08-21T05:37:28;1.27;;;1.17;;
1358;SDS011;673;48.098;14.422;2022-08-21T05:39:58;1.70;;;1.60;;
1358;SDS011;673;48.098;14.422;2022-08-21T05:42:25;1.37;;;1.10;;
1358;SDS011;673;48.098;14.422;2022-08-21T05:44:52;1.60;;;1.50;;
1358;SDS011;673;48.098;14.422;2022-08-21T05:47:19;2.20;;;1.20;;
1358;SDS011;673;48.098;14.422;2022-08-21T05:49:46;1.23;;;1.13;;
1358;SDS011;673;48.098;14.422;2022-08-21T05:52:17;1.60;;;1.50;;
1358;SDS011;673;48.098;14.422;2022-08-21T05:54:45;2.70;;;1.67;;
1358;SDS011;673;48.098;14.422;2022-08-21T05:57:13;1.87;;;1.30;;
1358;SDS011;673;48.098;14.422;2022-08-21T05:59:40;2.70;;;1.13;;
1358;SDS011;673;48.098;14.422;2022-08-21T06:02:08;4.60;;;1.97;;
1358;SDS011;673;48.098;14.422;2022-08-21T06:04:36;1.93;;;1.60;;
1358;SDS011;673;48.098;14.422;2022-08-21T06:07:03;1.60;;;1.37;;
1358;SDS011;673;48.098;14.422;2022-08-21T06:09:31;2.20;;;1.20;;
1358;SDS011;673;48.098;14.422;2022-08-21T06:12:02;2.93;;;2.17;;
1358;SDS011;673;48.098;14.422;2022-08-21T06:14:31;2.30;;;1.50;;
1358;SDS011;673;48.098;14.422;2022-08-21T06:17:01;2.73;;;1.63;;
1358;SDS011;673;48.098;14.422;2022-08-21T06:19:29;3.20;;;2.13;;
1358;SDS011;673;48.098;14.422;2022-08-21T06:21:56;3.83;;;3.10;;
1358;SDS011;673;48.098;14.422;2022-08-21T06:24:23;4.63;;;2.33;;
1358;SDS011;673;48.098;14.422;2022-08-21T06:26:50;3.53;;;2.83;;
1358;SDS011;673;48.098;14.422;2022-08-21T06:29:18;5.47;;;2.57;;
1358;SDS011;673;48.098;14.422;2022-08-21T06:31:47;4.30;;;3.00;;
1358;SDS011;673;48.098;14.422;2022-08-21T06:34:14;3.90;;;2.63;;
1358;SDS011;673;48.098;14.422;2022-08-21T06:36:42;6.50;;;3.53;;
1358;SDS011;673;48.098;14.422;2022-08-21T06:39:09;9.20;;;4.20;;
1358;SDS011;673;48.098;14.422;2022-08-21T06:41:36;5.23;;;3.67;;
1358;SDS011;673;48.098;14.422;2022-08-21T06:44:03;7.00;;;3.30;;
1358;SDS011;673;48.098;14.422;2022-08-21T06:46:30;4.70;;;3.67;;
1358;SDS011;673;48.098;14.422;2022-08-21T06:49:00;4.83;;;4.23;;
1358;SDS011;673;48.098;14.422;2022-08-21T06:51:27;5.13;;;3.67;;
1358;SDS011;673;48.098;14.422;2022-08-21T06:53:54;6.40;;;2.60;;
1358;SDS011;673;48.098;14.422;2022-08-21T06:56:22;7.30;;;5.10;;
1358;SDS011;673;48.098;14.422;2022-08-21T06:58:49;6.10;;;3.40;;
1358;SDS011;673;48.098;14.422;2022-08-21T07:01:24;9.87;;;5.33;;
1358;SDS011;673;48.098;14.422;2022-08-21T07:03:52;7.87;;;5.20;;
1358;SDS011;673;48.098;14.422;2022-08-21T07:06:20;7.67;;;3.70;;
1358;SDS011;673;48.098;14.422;2022-08-21T07:08:47;6.17;;;3.77;;
1358;SDS011;673;48.098;14.422;2022-08-21T07:11:17;10.70;;;4.53;;
1358;SDS011;673;48.098;14.422;2022-08-21T07:13:48;5.23;;;2.80;;
1358;SDS011;673;48.098;14.422;2022-08-21T07:16:17;10.97;;;4.23;;
1358;SDS011;673;48.098;14.422;2022-08-21T07:18:44;6.20;;;3.87;;
1358;SDS011;673;48.098;14.422;2022-08-21T07:21:11;8.47;;;4.40;;
1358;SDS011;673;48.098;14.422;2022-08-21T07:23:40;6.90;;;4.50;;
1358;SDS011;673;48.098;14.422;2022-08-21T07:26:10;8.10;;;4.50;;
1358;SDS011;673;48.098;14.422;2022-08-21T07:28:41;5.30;;;3.80;;
1358;SDS011;673;48.098;14.422;2022-08-21T07:31:09;13.83;;;5.97;;
1358;SDS011;673;48.098;14.422;2022-08-21T07:33:38;10.03;;;4.30;;
1358;SDS011;673;48.098;14.422;2022-08-21T07:36:06;6.83;;;4.20;;
1358;SDS011;673;48.098;14.422;2022-08-21T07:38:33;7.67;;;4.20;;
1358;SDS011;673;48.098;14.422;2022-08-21T07:41:02;9.40;;;5.13;;
1358;SDS011;673;48.098;14.422;2022-08-21T07:43:36;9.40;;;5.00;;
1358;SDS011;673;48.098;14.422;2022-08-21T07:46:04;9.23;;;6.13;;
1358;SDS011;673;48.098;14.422;2022-08-21T07:48:31;8.70;;;5.63;;
1358;SDS011;673;48.098;14.422;2022-08-21T07:50:58;8.73;;;4.43;;
1358;SDS011;673;48.098;14.422;2022-08-21T07:53:30;8.10;;;4.23;;
1358;SDS011;673;48.098;14.422;2022-08-21T07:55:57;9.30;;;5.07;;
1358;SDS011;673;48.098;14.422;2022-08-21T07:58:26;10.83;;;5.70;;
1358;SDS011;673;48.098;14.422;2022-08-21T08:00:53;10.07;;;4.30;;
1358;SDS011;673;48.098;14.422;2022-08-21T08:03:20;7.00;;;4.63;;
1358;SDS011;673;48.098;14.422;2022-08-21T08:05:47;12.43;;;5.67;;
1358;SDS011;673;48.098;14.422;2022-08-21T08:08:14;9.53;;;5.23;;
1358;SDS011;673;48.098;14.422;2022-08-21T08:10:42;11.63;;;6.00;;
1358;SDS011;673;48.098;14.422;2022-08-21T08:13:10;10.53;;;5.83;;
1358;SDS011;673;48.098;14.422;2022-08-21T08:15:38;9.27;;;6.40;;
1358;SDS011;673;48.098;14.422;2022-08-21T08:18:05;10.47;;;5.07;;
1358;SDS011;673;48.098;14.422;2022-08-21T08:20:32;12.20;;;7.43;;
1358;SDS011;673;48.098;14.422;2022-08-21T08:22:59;9.63;;;7.00;;
1358;SDS011;673;48.098;14.422;2022-08-21T08:25:26;12.37;;;6.03;;
1358;SDS011;673;48.098;14.422;2022-08-21T08:27:53;10.20;;;6.57;;
1358;SDS011;673;48.098;14.422;2022-08-21T08:30:20;13.13;;;6.73;;
1358;SDS011;673;48.098;14.422;2022-08-21T08:32:50;13.20;;;7.73;;
1358;SDS011;673;48.098;14.422;2022-08-21T08:35:18;13.37;;;6.90;;
1358;SDS011;673;48.098;14.422;2022-08-21T08:37:45;15.93;;;7.53;;
1358;SDS011;673;48.098;14.422;2022-08-21T08:40:12;14.50;;;7.50;;
1358;SDS011;673;48.098;14.422;2022-08-21T08:42:44;14.10;;;6.73;;
1358;SDS011;673;48.098;14.422;2022-08-21T08:45:13;15.23;;;7.57;;
1358;SDS011;673;48.098;14.422;2022-08-21T08:47:44;10.90;;;6.20;;
1358;SDS011;673;48.098;14.422;2022-08-21T08:50:17;8.63;;;5.50;;
1358;SDS011;673;48.098;14.422;2022-08-21T08:52:48;10.63;;;7.37;;
1358;SDS011;673;48.098;14.422;2022-08-21T08:55:21;13.80;;;8.00;;
1358;SDS011;673;48.098;14.422;2022-08-21T08:57:59;15.00;;;6.77;;
1358;SDS011;673;48.098;14.422;2022-08-21T09:00:27;8.87;;;5.83;;
1358;SDS011;673;48.098;14.422;2022-08-21T09:02:56;11.93;;;8.07;;
1358;SDS011;673;48.098;14.422;2022-08-21T09:05:27;11.30;;;6.23;;
1358;SDS011;673;48.098;14.422;2022-08-21T09:08:04;10.27;;;5.70;;
1358;SDS011;673;48.098;14.422;2022-08-21T09:10:47;8.33;;;5.20;;
1358;SDS011;673;48.098;14.422;2022-08-21T09:13:27;8.03;;;5.77;;
1358;SDS011;673;48.098;14.422;2022-08-21T09:16:08;7.27;;;5.20;;
1358;SDS011;673;48.098;14.422;2022-08-21T09:18:45;9.30;;;6.00;;
1358;SDS011;673;48.098;14.422;2022-08-21T09:21:27;8.33;;;5.63;;
1358;SDS011;673;48.098;14.422;2022-08-21T09:24:02;13.77;;;8.23;;
1358;SDS011;673;48.098;14.422;2022-08-21T09:26:44;8.80;;;5.27;;
1358;SDS011;673;48.098;14.422;2022-08-21T09:29:16;6.97;;;5.60;;
1358;SDS011;673;48.098;14.422;2022-08-21T09:31:46;7.80;;;5.30;;
1358;SDS011;673;48.098;14.422;2022-08-21T09:34:23;9.90;;;5.37;;
1358;SDS011;673;48.098;14.422;2022-08-21T09:36:52;8.17;;;6.73;;
1358;SDS011;673;48.098;14.422;2022-08-21T09:39:22;8.97;;;5.93;;
1358;SDS011;673;48.098;14.422;2022-08-21T09:41:55;6.93;;;4.93;;
1358;SDS011;673;48.098;14.422;2022-08-21T09:44:25;7.50;;;6.13;;
1358;SDS011;673;48.098;14.422;2022-08-21T09:46:53;8.03;;;5.60;;
1358;SDS011;673;48.098;14.422;2022-08-21T09:49:26;4.00;;;2.90;;
1358;SDS011;673;48.098;14.422;2022-08-21T09:51:56;6.50;;;4.40;;
1358;SDS011;673;48.098;14.422;2022-08-21T09:54:26;4.43;;;2.97;;
1358;SDS011;673;48.098;14.422;2022-08-21T09:56:56;8.23;;;3.50;;
1358;SDS011;673;48.098;14.422;2022-08-21T09:59:42;3.40;;;3.10;;
1358;SDS011;673;48.098;14.422;2022-08-21T10:02:22;4.57;;;2.83;;
1358;SDS011;673;48.098;14.422;2022-08-21T10:04:52;8.30;;;4.73;;
1358;SDS011;673;48.098;14.422;2022-08-21T10:07:23;4.90;;;3.43;;
1358;SDS011;673;48.098;14.422;2022-08-21T10:09:58;5.20;;;3.77;;
1358;SDS011;673;48.098;14.422;2022-08-21T10:12:29;5.93;;;4.67;;
1358;SDS011;673;48.098;14.422;2022-08-21T10:15:05;4.77;;;2.80;;
1358;SDS011;673;48.098;14.422;2022-08-21T10:17:43;5.30;;;2.57;;
1358;SDS011;673;48.098;14.422;2022-08-21T10:20:17;4.40;;;3.47;;
1358;SDS011;673;48.098;14.422;2022-08-21T10:22:51;4.57;;;3.13;;
1358;SDS011;673;48.098;14.422;2022-08-21T10:25:28;5.83;;;3.43;;
1358;SDS011;673;48.098;14.422;2022-08-21T10:28:03;3.60;;;2.80;;
1358;SDS011;673;48.098;14.422;2022-08-21T10:30:38;5.37;;;3.90;;
1358;SDS011;673;48.098;14.422;2022-08-21T10:33:13;3.97;;;3.10;;
1358;SDS011;673;48.098;14.422;2022-08-21T10:35:52;3.20;;;2.90;;
1358;SDS011;673;48.098;14.422;2022-08-21T10:38:35;6.23;;;3.67;;
1358;SDS011;673;48.098;14.422;2022-08-21T10:41:21;5.40;;;2.80;;
1358;SDS011;673;48.098;14.422;2022-08-21T10:43:56;4.87;;;3.33;;
1358;SDS011;673;48.098;14.422;2022-08-21T10:46:37;4.63;;;3.13;;
1358;SDS011;673;48.098;14.422;2022-08-21T10:49:14;5.37;;;4.00;;
1358;SDS011;673;48.098;14.422;2022-08-21T10:51:49;4.33;;;2.93;;
1358;SDS011;673;48.098;14.422;2022-08-21T10:54:26;4.20;;;3.07;;
1358;SDS011;673;48.098;14.422;2022-08-21T10:57:04;7.50;;;3.70;;
1358;SDS011;673;48.098;14.422;2022-08-21T10:59:44;3.67;;;3.13;;
1358;SDS011;673;48.098;14.422;2022-08-21T11:02:18;4.07;;;3.33;;
1358;SDS011;673;48.098;14.422;2022-08-21T11:04:53;4.17;;;2.87;;
1358;SDS011;673;48.098;14.422;2022-08-21T11:07:26;4.53;;;2.90;;
1358;SDS011;673;48.098;14.422;2022-08-21T11:09:58;5.43;;;3.80;;
1358;SDS011;673;48.098;14.422;2022-08-21T11:12:35;5.43;;;3.37;;
1358;SDS011;673;48.098;14.422;2022-08-21T11:17:54;5.60;;;4.30;;
1358;SDS011;673;48.098;14.422;2022-08-21T11:20:28;5.53;;;4.33;;
1358;SDS011;673;48.098;14.422;2022-08-21T11:23:01;7.47;;;4.40;;
1358;SDS011;673;48.098;14.422;2022-08-21T11:25:35;8.10;;;3.93;;
1358;SDS011;673;48.098;14.422;2022-08-21T11:28:08;4.70;;;3.87;;
1358;SDS011;673;48.098;14.422;2022-08-21T11:30:40;6.93;;;4.00;;
1358;SDS011;673;48.098;14.422;2022-08-21T11:33:23;3.60;;;2.90;;
1358;SDS011;673;48.098;14.422;2022-08-21T11:36:00;4.67;;;3.30;;
1358;SDS011;673;48.098;14.422;2022-08-21T11:38:34;4.83;;;2.27;;
1358;SDS011;673;48.098;14.422;2022-08-21T11:41:11;3.90;;;2.77;;
1358;SDS011;673;48.098;14.422;2022-08-21T11:43:47;1.10;;;1.00;;
1358;SDS011;673;48.098;14.422;2022-08-21T11:46:24;1.20;;;0.93;;
1358;SDS011;673;48.098;14.422;2022-08-21T11:48:59;1.57;;;1.47;;
1358;SDS011;673;48.098;14.422;2022-08-21T11:51:36;2.87;;;1.53;;
1358;SDS011;673;48.098;14.422;2022-08-21T11:54:08;2.20;;;1.00;;
1358;SDS011;673;48.098;14.422;2022-08-21T11:56:45;2.17;;;1.43;;
1358;SDS011;673;48.098;14.422;2022-08-21T11:59:17;1.33;;;1.23;;
1358;SDS011;673;48.098;14.422;2022-08-21T12:01:48;1.63;;;1.20;;
1358;SDS011;673;48.098;14.422;2022-08-21T12:04:18;3.73;;;1.00;;
1358;SDS011;673;48.098;14.422;2022-08-21T12:06:51;1.03;;;0.93;;
1358;SDS011;673;48.098;14.422;2022-08-21T12:09:29;1.70;;;1.23;;
1358;SDS011;673;48.098;14.422;2022-08-21T12:12:02;1.50;;;1.30;;
1358;SDS011;673;48.098;14.422;2022-08-21T12:14:41;0.70;;;0.70;;
1358;SDS011;673;48.098;14.422;2022-08-21T12:17:17;0.83;;;0.63;;
1358;SDS011;673;48.098;14.422;2022-08-21T12:19:56;0.70;;;0.70;;
1358;SDS011;673;48.098;14.422;2022-08-21T12:22:30;6.93;;;1.50;;
1358;SDS011;673;48.098;14.422;2022-08-21T12:25:05;0.57;;;0.50;;
1358;SDS011;673;48.098;14.422;2022-08-21T12:27:45;0.80;;;0.70;;
1358;SDS011;673;48.098;14.422;2022-08-21T12:30:19;0.60;;;0.50;;
1358;SDS011;673;48.098;14.422;2022-08-21T12:32:59;0.70;;;0.60;;
1358;SDS011;673;48.098;14.422;2022-08-21T12:35:30;0.60;;;0.57;;
1358;SDS011;673;48.098;14.422;2022-08-21T12:38:07;1.50;;;0.50;;
1358;SDS011;673;48.098;14.422;2022-08-21T12:40:39;1.07;;;0.80;;
1358;SDS011;673;48.098;14.422;2022-08-21T12:43:13;2.40;;;1.10;;
1358;SDS011;673;48.098;14.422;2022-08-21T12:45:43;2.50;;;0.60;;
1358;SDS011;673;48.098;14.422;2022-08-21T12:48:14;0.50;;;0.50;;
1358;SDS011;673;48.098;14.422;2022-08-21T12:50:46;0.67;;;0.67;;
1358;SDS011;673;48.098;14.422;2022-08-21T12:53:21;1.03;;;0.83;;
1358;SDS011;673;48.098;14.422;2022-08-21T12:55:53;0.77;;;0.63;;
1358;SDS011;673;48.098;14.422;2022-08-21T12:58:26;0.57;;;0.57;;
1358;SDS011;673;48.098;14.422;2022-08-21T13:00:56;0.63;;;0.60;;
1358;SDS011;673;48.098;14.422;2022-08-21T13:03:26;0.60;;;0.60;;
1358;SDS011;673;48.098;14.422;2022-08-21T13:05:54;2.30;;;0.80;;
1358;SDS011;673;48.098;14.422;2022-08-21T13:08:21;0.77;;;0.70;;
1358;SDS011;673;48.098;14.422;2022-08-21T13:10:56;1.13;;;1.03;;
1358;SDS011;673;48.098;14.422;2022-08-21T13:13:28;0.80;;;0.77;;
1358;SDS011;673;48.098;14.422;2022-08-21T13:15:56;0.67;;;0.60;;
1358;SDS011;673;48.098;14.422;2022-08-21T13:18:26;0.70;;;0.60;;
1358;SDS011;673;48.098;14.422;2022-08-21T13:21:02;0.63;;;0.63;;
1358;SDS011;673;48.098;14.422;2022-08-21T13:23:31;1.47;;;1.23;;
1358;SDS011;673;48.098;14.422;2022-08-21T13:25:58;1.00;;;0.90;;
1358;SDS011;673;48.098;14.422;2022-08-21T13:28:33;1.30;;;1.03;;
1358;SDS011;673;48.098;14.422;2022-08-21T13:31:05;0.90;;;0.60;;
1358;SDS011;673;48.098;14.422;2022-08-21T13:33:35;1.10;;;1.00;;
1358;SDS011;673;48.098;14.422;2022-08-21T13:36:06;3.93;;;0.90;;
1358;SDS011;673;48.098;14.422;2022-08-21T13:38:38;1.43;;;1.33;;
1358;SDS011;673;48.098;14.422;2022-08-21T13:41:08;0.53;;;0.50;;
1358;SDS011;673;48.098;14.422;2022-08-21T13:43:45;1.00;;;0.90;;
1358;SDS011;673;48.098;14.422;2022-08-21T13:46:15;0.60;;;0.57;;
1358;SDS011;673;48.098;14.422;2022-08-21T13:48:44;2.00;;;1.03;;
1358;SDS011;673;48.098;14.422;2022-08-21T13:51:11;2.60;;;0.80;;
1358;SDS011;673;48.098;14.422;2022-08-21T13:53:44;0.90;;;0.60;;
1358;SDS011;673;48.098;14.422;2022-08-21T13:56:25;1.60;;;0.80;;
1358;SDS011;673;48.098;14.422;2022-08-21T13:58:56;1.63;;;0.80;;
1358;SDS011;673;48.098;14.422;2022-08-21T14:01:24;1.00;;;0.90;;
1358;SDS011;673;48.098;14.422;2022-08-21T14:03:54;0.83;;;0.83;;
1358;SDS011;673;48.098;14.422;2022-08-21T14:06:25;0.70;;;0.70;;
1358;SDS011;673;48.098;14.422;2022-08-21T14:08:54;0.87;;;0.83;;
1358;SDS011;673;48.098;14.422;2022-08-21T14:11:24;0.60;;;0.60;;
1358;SDS011;673;48.098;14.422;2022-08-21T14:13:57;0.70;;;0.70;;
1358;SDS011;673;48.098;14.422;2022-08-21T14:16:27;1.30;;;1.20;;
1358;SDS011;673;48.098;14.422;2022-08-21T14:19:10;0.93;;;0.90;;
1358;SDS011;673;48.098;14.422;2022-08-21T14:21:44;1.50;;;0.70;;
1358;SDS011;673;48.098;14.422;2022-08-21T14:24:13;2.57;;;0.67;;
1358;SDS011;673;48.098;14.422;2022-08-21T14:26:51;0.60;;;0.60;;
1358;SDS011;673;48.098;14.422;2022-08-21T14:29:22;1.03;;;0.90;;
1358;SDS011;673;48.098;14.422;2022-08-21T14:31:53;0.90;;;0.90;;
1358;SDS011;673;48.098;14.422;2022-08-21T14:34:22;0.90;;;0.90;;
1358;SDS011;673;48.098;14.422;2022-08-21T14:36:54;1.80;;;0.70;;
1358;SDS011;673;48.098;14.422;2022-08-21T14:39:22;1.10;;;1.00;;
1358;SDS011;673;48.098;14.422;2022-08-21T14:41:49;1.13;;;1.00;;
1358;SDS011;673;48.098;14.422;2022-08-21T14:44:18;1.03;;;0.90;;
1358;SDS011;673;48.098;14.422;2022-08-21T14:46:48;2.70;;;1.40;;
1358;SDS011;673;48.098;14.422;2022-08-21T14:49:15;2.60;;;0.70;;
1358;SDS011;673;48.098;14.422;2022-08-21T14:51:42;0.90;;;0.73;;
1358;SDS011;673;48.098;14.422;2022-08-21T14:54:09;1.00;;;0.90;;
1358;SDS011;673;48.098;14.422;2022-08-21T14:56:36;1.60;;;0.80;;
1358;SDS011;673;48.098;14.422;2022-08-21T14:59:04;1.27;;;0.80;;
1358;SDS011;673;48.098;14.422;2022-08-21T15:01:32;1.10;;;0.90;;
1358;SDS011;673;48.098;14.422;2022-08-21T15:04:03;1.00;;;0.70;;
1358;SDS011;673;48.098;14.422;2022-08-21T15:06:31;0.80;;;0.70;;
1358;SDS011;673;48.098;14.422;2022-08-21T15:08:57;1.63;;;0.93;;
1358;SDS011;673;48.098;14.422;2022-08-21T15:11:26;0.83;;;0.70;;
1358;SDS011;673;48.098;14.422;2022-08-21T15:13:55;3.00;;;0.90;;
1358;SDS011;673;48.098;14.422;2022-08-21T15:16:26;1.70;;;1.17;;
1358;SDS011;673;48.098;14.422;2022-08-21T15:18:55;2.00;;;1.47;;
1358;SDS011;673;48.098;14.422;2022-08-21T15:21:23;1.00;;;0.83;;
1358;SDS011;673;48.098;14.422;2022-08-21T15:23:50;1.50;;;0.90;;
1358;SDS011;673;48.098;14.422;2022-08-21T15:26:18;1.10;;;1.10;;
1358;SDS011;673;48.098;14.422;2022-08-21T15:28:48;1.70;;;0.97;;
1358;SDS011;673;48.098;14.422;2022-08-21T15:31:15;1.30;;;1.20;;
1358;SDS011;673;48.098;14.422;2022-08-21T15:33:42;1.13;;;1.00;;
1358;SDS011;673;48.098;14.422;2022-08-21T15:36:09;1.20;;;1.10;;